sensor_id;sensor_type;location;lat;lon;timestamp;temperature;humidity
22249;DHT22;67538;52.180;5.646;2023-02-07T00:01:32;0.10;99.90
22249;DHT22;67538;52.180;5.646;2023-02-07T00:04:00;0.10;99.90
22249;DHT22;67538;52.180;5.646;2023-02-07T00:06:29;0.10;99.90
22249;DHT22;67538;52.180;5.646;2023-02-07T00:08:58;0.00;99.90
22249;DHT22;67538;52.180;5.646;2023-02-07T00:11:25;0.00;99.90
22249;DHT22;67538;52.180;5.646;2023-02-07T00:13:55;0.00;99.90
22249;DHT22;67538;52.180;5.646;2023-02-07T00:16:24;0.00;99.90
22249;DHT22;67538;52.180;5.646;2023-02-07T00:18:51;0.00;99.90
22249;DHT22;67538;52.180;5.646;2023-02-07T00:21:20;0.00;99.90
22249;DHT22;67538;52.180;5.646;2023-02-07T00:23:48;0.00;99.90
22249;DHT22;67538;52.180;5.646;2023-02-07T00:26:16;0.00;99.90
22249;DHT22;67538;52.180;5.646;2023-02-07T00:28:44;0.00;99.90
22249;DHT22;67538;52.180;5.646;2023-02-07T00:31:13;0.00;99.90
22249;DHT22;67538;52.180;5.646;2023-02-07T00:33:43;0.10;99.90
22249;DHT22;67538;52.180;5.646;2023-02-07T00:36:12;0.00;99.90
22249;DHT22;67538;52.180;5.646;2023-02-07T00:38:39;0.00;99.90
22249;DHT22;67538;52.180;5.646;2023-02-07T00:41:07;0.00;99.90
22249;DHT22;67538;52.180;5.646;2023-02-07T00:43:34;0.00;99.90
22249;DHT22;67538;52.180;5.646;2023-02-07T00:46:02;0.00;99.90
22249;DHT22;67538;52.180;5.646;2023-02-07T00:48:30;-0.10;99.90
22249;DHT22;67538;52.180;5.646;2023-02-07T00:50:59;-0.10;99.90
22249;DHT22;67538;52.180;5.646;2023-02-07T00:53:28;-0.20;99.90
22249;DHT22;67538;52.180;5.646;2023-02-07T00:55:55;-0.20;99.90
22249;DHT22;67538;52.180;5.646;2023-02-07T00:58:23;-0.20;99.90
22249;DHT22;67538;52.180;5.646;2023-02-07T01:00:50;-0.20;99.90
22249;DHT22;67538;52.180;5.646;2023-02-07T01:03:17;-0.20;99.90
22249;DHT22;67538;52.180;5.646;2023-02-07T01:05:45;-0.20;99.90
22249;DHT22;67538;52.180;5.646;2023-02-07T01:08:14;-0.20;99.90
22249;DHT22;67538;52.180;5.646;2023-02-07T01:10:42;-0.20;99.90
22249;DHT22;67538;52.180;5.646;2023-02-07T01:13:11;-0.20;99.90
22249;DHT22;67538;52.180;5.646;2023-02-07T01:15:39;-0.20;99.90
22249;DHT22;67538;52.180;5.646;2023-02-07T01:18:07;-0.20;99.90
22249;DHT22;67538;52.180;5.646;2023-02-07T01:20:35;-0.20;99.90
22249;DHT22;67538;52.180;5.646;2023-02-07T01:23:02;-0.10;99.90
22249;DHT22;67538;52.180;5.646;2023-02-07T01:25:32;-0.10;99.90
22249;DHT22;67538;52.180;5.646;2023-02-07T01:27:59;-0.10;99.90
22249;DHT22;67538;52.180;5.646;2023-02-07T01:30:26;0.00;99.90
22249;DHT22;67538;52.180;5.646;2023-02-07T01:32:53;0.00;99.90
22249;DHT22;67538;52.180;5.646;2023-02-07T01:35:20;0.00;99.90
22249;DHT22;67538;52.180;5.646;2023-02-07T01:37:47;0.10;99.90
22249;DHT22;67538;52.180;5.646;2023-02-07T01:40:15;0.10;99.90
22249;DHT22;67538;52.180;5.646;2023-02-07T01:42:43;0.10;99.90
22249;DHT22;67538;52.180;5.646;2023-02-07T01:45:24;0.10;99.90
22249;DHT22;67538;52.180;5.646;2023-02-07T01:47:56;0.10;99.90
22249;DHT22;67538;52.180;5.646;2023-02-07T01:50:25;0.20;99.90
22249;DHT22;67538;52.180;5.646;2023-02-07T01:52:53;0.10;99.90
22249;DHT22;67538;52.180;5.646;2023-02-07T01:55:25;0.10;99.90
22249;DHT22;67538;52.180;5.646;2023-02-07T01:57:55;0.00;99.90
22249;DHT22;67538;52.180;5.646;2023-02-07T02:00:22;-0.10;99.90
22249;DHT22;67538;52.180;5.646;2023-02-07T02:02:50;-0.20;99.90
22249;DHT22;67538;52.180;5.646;2023-02-07T02:05:18;-0.30;99.90
22249;DHT22;67538;52.180;5.646;2023-02-07T02:07:45;-0.30;99.90
22249;DHT22;67538;52.180;5.646;2023-02-07T02:10:16;-0.30;99.90
22249;DHT22;67538;52.180;5.646;2023-02-07T02:12:53;-0.30;99.90
22249;DHT22;67538;52.180;5.646;2023-02-07T02:15:33;-0.30;99.90
22249;DHT22;67538;52.180;5.646;2023-02-07T02:18:22;-0.30;99.90
22249;DHT22;67538;52.180;5.646;2023-02-07T02:21:26;-0.50;99.90
22249;DHT22;67538;52.180;5.646;2023-02-07T02:27:02;-0.70;99.90
22249;DHT22;67538;52.180;5.646;2023-02-07T02:30:07;-0.70;99.90
22249;DHT22;67538;52.180;5.646;2023-02-07T02:32:56;-0.70;99.90
22249;DHT22;67538;52.180;5.646;2023-02-07T02:35:32;-0.70;99.90
22249;DHT22;67538;52.180;5.646;2023-02-07T02:38:07;-0.60;99.90
22249;DHT22;67538;52.180;5.646;2023-02-07T02:40:40;-0.60;99.90
22249;DHT22;67538;52.180;5.646;2023-02-07T02:43:13;-0.60;99.90
22249;DHT22;67538;52.180;5.646;2023-02-07T02:45:45;-0.60;99.90
22249;DHT22;67538;52.180;5.646;2023-02-07T02:48:16;-0.60;99.90
22249;DHT22;67538;52.180;5.646;2023-02-07T02:50:45;-0.60;99.90
22249;DHT22;67538;52.180;5.646;2023-02-07T02:53:13;-0.60;99.90
22249;DHT22;67538;52.180;5.646;2023-02-07T02:58:56;-0.60;99.90
22249;DHT22;67538;52.180;5.646;2023-02-07T03:01:32;-0.60;99.90
22249;DHT22;67538;52.180;5.646;2023-02-07T03:04:14;-0.60;99.90
22249;DHT22;67538;52.180;5.646;2023-02-07T03:06:55;-0.70;99.90
22249;DHT22;67538;52.180;5.646;2023-02-07T03:09:32;-0.70;99.90
22249;DHT22;67538;52.180;5.646;2023-02-07T03:12:08;-0.70;99.90
22249;DHT22;67538;52.180;5.646;2023-02-07T03:14:47;-0.70;99.90
22249;DHT22;67538;52.180;5.646;2023-02-07T03:17:20;-0.70;99.90
22249;DHT22;67538;52.180;5.646;2023-02-07T03:19:53;-0.70;99.90
22249;DHT22;67538;52.180;5.646;2023-02-07T03:22:23;-0.80;99.90
22249;DHT22;67538;52.180;5.646;2023-02-07T03:24:54;-0.80;99.90
22249;DHT22;67538;52.180;5.646;2023-02-07T03:27:23;-0.90;99.90
22249;DHT22;67538;52.180;5.646;2023-02-07T03:29:53;-0.90;99.90
22249;DHT22;67538;52.180;5.646;2023-02-07T03:32:24;-0.90;99.90
22249;DHT22;67538;52.180;5.646;2023-02-07T03:34:59;-1.00;99.90
22249;DHT22;67538;52.180;5.646;2023-02-07T03:37:31;-1.10;99.90
22249;DHT22;67538;52.180;5.646;2023-02-07T03:40:00;-1.20;99.90
22249;DHT22;67538;52.180;5.646;2023-02-07T03:42:30;-1.30;99.90
22249;DHT22;67538;52.180;5.646;2023-02-07T03:44:58;-1.30;99.90
22249;DHT22;67538;52.180;5.646;2023-02-07T03:47:27;-1.40;99.90
22249;DHT22;67538;52.180;5.646;2023-02-07T03:49:56;-1.40;99.90
22249;DHT22;67538;52.180;5.646;2023-02-07T03:52:23;-1.40;99.90
22249;DHT22;67538;52.180;5.646;2023-02-07T03:54:50;-1.40;99.90
22249;DHT22;67538;52.180;5.646;2023-02-07T03:57:17;-1.30;99.90
22249;DHT22;67538;52.180;5.646;2023-02-07T03:59:44;-1.20;99.90
22249;DHT22;67538;52.180;5.646;2023-02-07T04:02:11;-1.20;99.90
22249;DHT22;67538;52.180;5.646;2023-02-07T04:04:38;-1.20;99.90
22249;DHT22;67538;52.180;5.646;2023-02-07T04:07:07;-1.20;99.90
22249;DHT22;67538;52.180;5.646;2023-02-07T04:09:34;-1.10;99.90
22249;DHT22;67538;52.180;5.646;2023-02-07T04:12:01;-1.20;99.90
22249;DHT22;67538;52.180;5.646;2023-02-07T04:14:29;-1.10;99.90
22249;DHT22;67538;52.180;5.646;2023-02-07T04:16:56;-1.20;99.90
22249;DHT22;67538;52.180;5.646;2023-02-07T04:19:23;-1.20;99.90
22249;DHT22;67538;52.180;5.646;2023-02-07T04:21:50;-1.10;99.90
22249;DHT22;67538;52.180;5.646;2023-02-07T04:24:19;-1.10;99.90
22249;DHT22;67538;52.180;5.646;2023-02-07T04:26:46;-1.10;99.90
22249;DHT22;67538;52.180;5.646;2023-02-07T04:29:13;-1.20;99.90
22249;DHT22;67538;52.180;5.646;2023-02-07T04:31:40;-1.20;99.90
22249;DHT22;67538;52.180;5.646;2023-02-07T04:34:07;-1.30;99.90
22249;DHT22;67538;52.180;5.646;2023-02-07T04:36:36;-1.30;99.90
22249;DHT22;67538;52.180;5.646;2023-02-07T04:39:03;-1.30;99.90
22249;DHT22;67538;52.180;5.646;2023-02-07T04:41:31;-1.40;99.90
22249;DHT22;67538;52.180;5.646;2023-02-07T04:43:58;-1.30;99.90
22249;DHT22;67538;52.180;5.646;2023-02-07T04:46:25;-1.30;99.90
22249;DHT22;67538;52.180;5.646;2023-02-07T04:48:53;-1.30;99.90
22249;DHT22;67538;52.180;5.646;2023-02-07T04:51:20;-1.30;99.90
22249;DHT22;67538;52.180;5.646;2023-02-07T04:53:47;-1.30;99.90
22249;DHT22;67538;52.180;5.646;2023-02-07T04:56:14;-1.20;99.90
22249;DHT22;67538;52.180;5.646;2023-02-07T04:58:43;-1.10;99.90
22249;DHT22;67538;52.180;5.646;2023-02-07T05:01:10;-1.10;99.90
22249;DHT22;67538;52.180;5.646;2023-02-07T05:03:37;-1.10;99.90
22249;DHT22;67538;52.180;5.646;2023-02-07T05:06:04;-1.20;99.90
22249;DHT22;67538;52.180;5.646;2023-02-07T05:08:31;-1.20;99.90
22249;DHT22;67538;52.180;5.646;2023-02-07T05:10:59;-1.20;99.90
22249;DHT22;67538;52.180;5.646;2023-02-07T05:13:26;-1.30;99.90
22249;DHT22;67538;52.180;5.646;2023-02-07T05:15:54;-1.30;99.90
22249;DHT22;67538;52.180;5.646;2023-02-07T05:18:22;-1.30;99.90
22249;DHT22;67538;52.180;5.646;2023-02-07T05:20:51;-1.30;99.90
22249;DHT22;67538;52.180;5.646;2023-02-07T05:23:18;-1.30;99.90
22249;DHT22;67538;52.180;5.646;2023-02-07T05:25:47;-1.20;99.90
22249;DHT22;67538;52.180;5.646;2023-02-07T05:28:14;-1.20;99.90
22249;DHT22;67538;52.180;5.646;2023-02-07T05:30:42;-1.20;99.90
22249;DHT22;67538;52.180;5.646;2023-02-07T05:33:10;-1.20;99.90
22249;DHT22;67538;52.180;5.646;2023-02-07T05:35:38;-1.20;99.90
22249;DHT22;67538;52.180;5.646;2023-02-07T05:38:07;-1.20;99.90
22249;DHT22;67538;52.180;5.646;2023-02-07T05:40:34;-1.20;99.90
22249;DHT22;67538;52.180;5.646;2023-02-07T05:43:02;-1.20;99.90
22249;DHT22;67538;52.180;5.646;2023-02-07T05:45:29;-1.10;99.90
22249;DHT22;67538;52.180;5.646;2023-02-07T05:47:56;-1.10;99.90
22249;DHT22;67538;52.180;5.646;2023-02-07T05:50:26;-1.10;99.90
22249;DHT22;67538;52.180;5.646;2023-02-07T05:52:53;-1.10;99.90
22249;DHT22;67538;52.180;5.646;2023-02-07T05:55:20;-1.10;99.90
22249;DHT22;67538;52.180;5.646;2023-02-07T05:57:47;-1.10;99.90
22249;DHT22;67538;52.180;5.646;2023-02-07T06:02:43;-1.10;99.90
22249;DHT22;67538;52.180;5.646;2023-02-07T06:05:14;-1.20;99.90
22249;DHT22;67538;52.180;5.646;2023-02-07T06:07:42;-1.20;99.90
22249;DHT22;67538;52.180;5.646;2023-02-07T06:10:10;-1.30;99.90
22249;DHT22;67538;52.180;5.646;2023-02-07T06:12:37;-1.30;99.90
22249;DHT22;67538;52.180;5.646;2023-02-07T06:15:05;-1.40;99.90
22249;DHT22;67538;52.180;5.646;2023-02-07T06:17:32;-1.50;99.90
22249;DHT22;67538;52.180;5.646;2023-02-07T06:19:59;-1.50;99.90
22249;DHT22;67538;52.180;5.646;2023-02-07T06:22:26;-1.60;99.90
22249;DHT22;67538;52.180;5.646;2023-02-07T06:24:54;-1.70;99.90
22249;DHT22;67538;52.180;5.646;2023-02-07T06:27:21;-1.70;99.90
22249;DHT22;67538;52.180;5.646;2023-02-07T06:29:48;-1.70;99.90
22249;DHT22;67538;52.180;5.646;2023-02-07T06:32:15;-1.70;99.90
22249;DHT22;67538;52.180;5.646;2023-02-07T06:34:42;-1.70;99.90
22249;DHT22;67538;52.180;5.646;2023-02-07T06:37:09;-1.70;99.90
22249;DHT22;67538;52.180;5.646;2023-02-07T06:39:36;-1.60;99.90
22249;DHT22;67538;52.180;5.646;2023-02-07T06:42:05;-1.70;99.90
22249;DHT22;67538;52.180;5.646;2023-02-07T06:44:32;-1.60;99.90
22249;DHT22;67538;52.180;5.646;2023-02-07T06:46:59;-1.70;99.90
22249;DHT22;67538;52.180;5.646;2023-02-07T06:49:26;-1.80;99.90
22249;DHT22;67538;52.180;5.646;2023-02-07T06:51:53;-1.80;99.90
22249;DHT22;67538;52.180;5.646;2023-02-07T06:54:20;-1.80;99.90
22249;DHT22;67538;52.180;5.646;2023-02-07T06:56:47;-1.80;99.90
22249;DHT22;67538;52.180;5.646;2023-02-07T06:59:16;-1.80;99.90
22249;DHT22;67538;52.180;5.646;2023-02-07T07:01:43;-1.90;99.90
22249;DHT22;67538;52.180;5.646;2023-02-07T07:04:10;-1.80;99.90
22249;DHT22;67538;52.180;5.646;2023-02-07T07:06:37;-1.90;99.90
22249;DHT22;67538;52.180;5.646;2023-02-07T07:09:04;-1.90;99.90
22249;DHT22;67538;52.180;5.646;2023-02-07T07:11:31;-1.90;99.90
22249;DHT22;67538;52.180;5.646;2023-02-07T07:13:58;-1.80;99.90
22249;DHT22;67538;52.180;5.646;2023-02-07T07:16:28;-1.80;99.90
22249;DHT22;67538;52.180;5.646;2023-02-07T07:18:55;-1.80;99.90
22249;DHT22;67538;52.180;5.646;2023-02-07T07:21:22;-1.80;99.90
22249;DHT22;67538;52.180;5.646;2023-02-07T07:23:51;-1.80;99.90
22249;DHT22;67538;52.180;5.646;2023-02-07T07:26:18;-1.80;99.90
22249;DHT22;67538;52.180;5.646;2023-02-07T07:28:45;-1.80;99.90
22249;DHT22;67538;52.180;5.646;2023-02-07T07:31:14;-1.80;99.90
22249;DHT22;67538;52.180;5.646;2023-02-07T07:33:42;-1.80;99.90
22249;DHT22;67538;52.180;5.646;2023-02-07T07:36:09;-1.80;99.90
22249;DHT22;67538;52.180;5.646;2023-02-07T07:38:36;-1.80;99.90
22249;DHT22;67538;52.180;5.646;2023-02-07T07:41:04;-1.70;99.90
22249;DHT22;67538;52.180;5.646;2023-02-07T07:43:31;-1.70;99.90
22249;DHT22;67538;52.180;5.646;2023-02-07T07:45:58;-1.70;99.90
22249;DHT22;67538;52.180;5.646;2023-02-07T07:48:26;-1.70;99.90
22249;DHT22;67538;52.180;5.646;2023-02-07T07:50:54;-1.60;99.90
22249;DHT22;67538;52.180;5.646;2023-02-07T07:53:21;-1.60;99.90
22249;DHT22;67538;52.180;5.646;2023-02-07T07:55:49;-1.50;99.90
22249;DHT22;67538;52.180;5.646;2023-02-07T07:58:17;-1.40;99.90
22249;DHT22;67538;52.180;5.646;2023-02-07T08:00:45;-1.40;99.90
22249;DHT22;67538;52.180;5.646;2023-02-07T08:03:12;-1.30;99.90
22249;DHT22;67538;52.180;5.646;2023-02-07T08:05:39;-1.20;99.90
22249;DHT22;67538;52.180;5.646;2023-02-07T08:08:08;-1.20;99.90
22249;DHT22;67538;52.180;5.646;2023-02-07T08:10:35;-1.20;99.90
22249;DHT22;67538;52.180;5.646;2023-02-07T08:13:02;-1.10;99.90
22249;DHT22;67538;52.180;5.646;2023-02-07T08:15:29;-1.00;99.90
22249;DHT22;67538;52.180;5.646;2023-02-07T08:17:56;-0.90;99.90
22249;DHT22;67538;52.180;5.646;2023-02-07T08:20:23;-0.90;99.90
22249;DHT22;67538;52.180;5.646;2023-02-07T08:22:50;-0.80;99.90
22249;DHT22;67538;52.180;5.646;2023-02-07T08:25:19;-0.70;99.90
22249;DHT22;67538;52.180;5.646;2023-02-07T08:27:46;-0.60;99.90
22249;DHT22;67538;52.180;5.646;2023-02-07T08:30:13;-0.50;99.90
22249;DHT22;67538;52.180;5.646;2023-02-07T08:32:40;0.10;99.90
22249;DHT22;67538;52.180;5.646;2023-02-07T08:35:08;2.80;99.90
22249;DHT22;67538;52.180;5.646;2023-02-07T08:37:35;4.80;99.90
22249;DHT22;67538;52.180;5.646;2023-02-07T08:40:03;4.70;99.90
22249;DHT22;67538;52.180;5.646;2023-02-07T08:42:31;6.10;99.90
22249;DHT22;67538;52.180;5.646;2023-02-07T08:44:58;8.20;99.90
22249;DHT22;67538;52.180;5.646;2023-02-07T08:47:25;9.90;99.90
22249;DHT22;67538;52.180;5.646;2023-02-07T08:49:52;10.90;99.90
22249;DHT22;67538;52.180;5.646;2023-02-07T08:52:19;11.20;99.90
22249;DHT22;67538;52.180;5.646;2023-02-07T08:54:46;11.60;99.90
22249;DHT22;67538;52.180;5.646;2023-02-07T08:57:14;11.70;99.90
22249;DHT22;67538;52.180;5.646;2023-02-07T08:59:43;11.60;99.90
22249;DHT22;67538;52.180;5.646;2023-02-07T09:02:10;11.60;99.90
22249;DHT22;67538;52.180;5.646;2023-02-07T09:04:37;11.80;99.90
22249;DHT22;67538;52.180;5.646;2023-02-07T09:07:07;11.90;99.90
22249;DHT22;67538;52.180;5.646;2023-02-07T09:09:34;11.80;99.90
22249;DHT22;67538;52.180;5.646;2023-02-07T09:12:01;10.80;99.90
22249;DHT22;67538;52.180;5.646;2023-02-07T09:14:28;10.60;99.90
22249;DHT22;67538;52.180;5.646;2023-02-07T09:16:57;10.40;99.90
22249;DHT22;67538;52.180;5.646;2023-02-07T09:19:24;9.90;99.90
22249;DHT22;67538;52.180;5.646;2023-02-07T09:21:51;8.30;99.90
22249;DHT22;67538;52.180;5.646;2023-02-07T09:24:18;7.10;99.90
22249;DHT22;67538;52.180;5.646;2023-02-07T09:26:45;5.70;99.90
22249;DHT22;67538;52.180;5.646;2023-02-07T09:29:13;6.40;99.90
22249;DHT22;67538;52.180;5.646;2023-02-07T09:31:41;8.30;99.90
22249;DHT22;67538;52.180;5.646;2023-02-07T09:34:10;8.90;99.90
22249;DHT22;67538;52.180;5.646;2023-02-07T09:36:37;9.20;99.90
22249;DHT22;67538;52.180;5.646;2023-02-07T09:39:04;8.90;99.90
22249;DHT22;67538;52.180;5.646;2023-02-07T09:41:38;8.00;99.90
22249;DHT22;67538;52.180;5.646;2023-02-07T09:44:13;8.20;99.90
22249;DHT22;67538;52.180;5.646;2023-02-07T09:46:45;7.90;99.90
22249;DHT22;67538;52.180;5.646;2023-02-07T09:49:26;6.50;99.90
22249;DHT22;67538;52.180;5.646;2023-02-07T09:51:55;5.50;99.90
22249;DHT22;67538;52.180;5.646;2023-02-07T09:54:25;5.10;99.90
22249;DHT22;67538;52.180;5.646;2023-02-07T09:56:55;5.30;99.90
22249;DHT22;67538;52.180;5.646;2023-02-07T09:59:29;5.40;99.90
22249;DHT22;67538;52.180;5.646;2023-02-07T10:02:00;4.90;99.90
22249;DHT22;67538;52.180;5.646;2023-02-07T10:04:35;4.30;99.90
22249;DHT22;67538;52.180;5.646;2023-02-07T10:07:05;3.90;99.90
22249;DHT22;67538;52.180;5.646;2023-02-07T10:09:37;3.80;99.90
22249;DHT22;67538;52.180;5.646;2023-02-07T10:12:16;3.90;99.90
22249;DHT22;67538;52.180;5.646;2023-02-07T10:15:09;3.90;99.90
22249;DHT22;67538;52.180;5.646;2023-02-07T10:17:48;4.30;99.90
22249;DHT22;67538;52.180;5.646;2023-02-07T10:20:28;4.30;99.90
22249;DHT22;67538;52.180;5.646;2023-02-07T10:23:04;4.10;99.90
22249;DHT22;67538;52.180;5.646;2023-02-07T10:25:41;4.40;99.90
22249;DHT22;67538;52.180;5.646;2023-02-07T10:28:46;5.20;99.90
22249;DHT22;67538;52.180;5.646;2023-02-07T10:31:16;5.80;99.90
22249;DHT22;67538;52.180;5.646;2023-02-07T10:33:48;5.10;99.90
22249;DHT22;67538;52.180;5.646;2023-02-07T10:36:18;4.80;99.90
22249;DHT22;67538;52.180;5.646;2023-02-07T10:38:49;4.80;99.90
22249;DHT22;67538;52.180;5.646;2023-02-07T10:41:22;4.40;99.90
22249;DHT22;67538;52.180;5.646;2023-02-07T10:43:50;4.10;99.90
22249;DHT22;67538;52.180;5.646;2023-02-07T10:46:19;4.10;99.90
22249;DHT22;67538;52.180;5.646;2023-02-07T10:48:47;4.60;99.90
22249;DHT22;67538;52.180;5.646;2023-02-07T10:51:24;5.00;99.90
22249;DHT22;67538;52.180;5.646;2023-02-07T10:54:01;5.90;99.90
22249;DHT22;67538;52.180;5.646;2023-02-07T10:56:33;6.90;99.90
22249;DHT22;67538;52.180;5.646;2023-02-07T10:59:03;7.00;99.90
22249;DHT22;67538;52.180;5.646;2023-02-07T11:01:32;7.00;99.90
22249;DHT22;67538;52.180;5.646;2023-02-07T11:03:59;7.50;99.90
22249;DHT22;67538;52.180;5.646;2023-02-07T11:06:29;7.40;99.90
22249;DHT22;67538;52.180;5.646;2023-02-07T11:09:15;6.90;99.90
22249;DHT22;67538;52.180;5.646;2023-02-07T11:11:47;6.10;99.90
22249;DHT22;67538;52.180;5.646;2023-02-07T11:14:17;5.30;99.90
22249;DHT22;67538;52.180;5.646;2023-02-07T11:16:51;5.60;99.90
22249;DHT22;67538;52.180;5.646;2023-02-07T11:19:21;6.40;99.90
22249;DHT22;67538;52.180;5.646;2023-02-07T11:21:52;6.50;99.90
22249;DHT22;67538;52.180;5.646;2023-02-07T11:24:24;7.30;99.90
22249;DHT22;67538;52.180;5.646;2023-02-07T11:27:00;7.50;99.90
22249;DHT22;67538;52.180;5.646;2023-02-07T11:29:29;7.50;99.90
22249;DHT22;67538;52.180;5.646;2023-02-07T11:31:58;7.60;99.90
22249;DHT22;67538;52.180;5.646;2023-02-07T11:34:45;7.70;99.90
22249;DHT22;67538;52.180;5.646;2023-02-07T11:37:26;7.10;99.90
22249;DHT22;67538;52.180;5.646;2023-02-07T11:39:55;6.30;99.90
22249;DHT22;67538;52.180;5.646;2023-02-07T11:42:25;6.00;99.90
22249;DHT22;67538;52.180;5.646;2023-02-07T11:44:56;5.80;99.90
22249;DHT22;67538;52.180;5.646;2023-02-07T11:47:29;5.60;99.90
22249;DHT22;67538;52.180;5.646;2023-02-07T11:49:58;5.30;99.90
22249;DHT22;67538;52.180;5.646;2023-02-07T11:52:30;5.10;99.90
22249;DHT22;67538;52.180;5.646;2023-02-07T11:55:01;4.90;99.90
22249;DHT22;67538;52.180;5.646;2023-02-07T11:57:32;4.90;99.90
22249;DHT22;67538;52.180;5.646;2023-02-07T12:00:03;5.00;99.90
22249;DHT22;67538;52.180;5.646;2023-02-07T12:02:33;5.00;99.90
22249;DHT22;67538;52.180;5.646;2023-02-07T12:05:11;5.00;99.90
22249;DHT22;67538;52.180;5.646;2023-02-07T12:07:43;4.90;99.90
22249;DHT22;67538;52.180;5.646;2023-02-07T12:10:14;5.00;99.90
22249;DHT22;67538;52.180;5.646;2023-02-07T12:12:45;5.00;99.90
22249;DHT22;67538;52.180;5.646;2023-02-07T12:15:16;5.10;99.90
22249;DHT22;67538;52.180;5.646;2023-02-07T12:17:55;5.20;99.90
22249;DHT22;67538;52.180;5.646;2023-02-07T12:20:25;5.20;99.90
22249;DHT22;67538;52.180;5.646;2023-02-07T12:22:59;5.40;99.90
22249;DHT22;67538;52.180;5.646;2023-02-07T12:25:30;5.60;99.90
22249;DHT22;67538;52.180;5.646;2023-02-07T12:28:00;5.80;99.90
22249;DHT22;67538;52.180;5.646;2023-02-07T12:30:35;5.80;99.90
22249;DHT22;67538;52.180;5.646;2023-02-07T12:33:09;5.80;99.90
22249;DHT22;67538;52.180;5.646;2023-02-07T12:35:45;5.80;99.90
22249;DHT22;67538;52.180;5.646;2023-02-07T12:38:22;5.90;99.90
22249;DHT22;67538;52.180;5.646;2023-02-07T12:40:52;5.90;99.90
22249;DHT22;67538;52.180;5.646;2023-02-07T12:43:23;5.90;99.90
22249;DHT22;67538;52.180;5.646;2023-02-07T12:46:04;5.70;99.90
22249;DHT22;67538;52.180;5.646;2023-02-07T12:48:50;5.70;99.90
22249;DHT22;67538;52.180;5.646;2023-02-07T12:51:27;5.70;99.90
22249;DHT22;67538;52.180;5.646;2023-02-07T12:54:07;5.80;99.90
22249;DHT22;67538;52.180;5.646;2023-02-07T12:56:46;5.80;99.90
22249;DHT22;67538;52.180;5.646;2023-02-07T12:59:22;5.80;99.90
22249;DHT22;67538;52.180;5.646;2023-02-07T13:01:56;5.80;99.90
22249;DHT22;67538;52.180;5.646;2023-02-07T13:05:02;5.90;99.90
22249;DHT22;67538;52.180;5.646;2023-02-07T13:07:40;5.80;99.90
22249;DHT22;67538;52.180;5.646;2023-02-07T13:10:21;5.80;99.90
22249;DHT22;67538;52.180;5.646;2023-02-07T13:12:52;5.80;99.90
22249;DHT22;67538;52.180;5.646;2023-02-07T13:15:26;5.80;99.90
22249;DHT22;67538;52.180;5.646;2023-02-07T13:18:04;5.80;99.90
22249;DHT22;67538;52.180;5.646;2023-02-07T13:20:44;5.90;99.90
22249;DHT22;67538;52.180;5.646;2023-02-07T13:23:16;6.00;99.90
22249;DHT22;67538;52.180;5.646;2023-02-07T13:25:48;6.10;99.90
22249;DHT22;67538;52.180;5.646;2023-02-07T13:28:20;6.10;99.90
22249;DHT22;67538;52.180;5.646;2023-02-07T13:30:51;6.00;99.90
22249;DHT22;67538;52.180;5.646;2023-02-07T13:33:29;6.10;99.90
22249;DHT22;67538;52.180;5.646;2023-02-07T13:36:03;6.30;99.90
22249;DHT22;67538;52.180;5.646;2023-02-07T13:38:41;6.30;99.90
22249;DHT22;67538;52.180;5.646;2023-02-07T13:41:21;6.50;99.90
22249;DHT22;67538;52.180;5.646;2023-02-07T13:43:58;6.70;99.90
22249;DHT22;67538;52.180;5.646;2023-02-07T13:46:52;6.80;99.90
22249;DHT22;67538;52.180;5.646;2023-02-07T13:49:39;6.90;99.90
22249;DHT22;67538;52.180;5.646;2023-02-07T13:52:11;6.90;99.90
22249;DHT22;67538;52.180;5.646;2023-02-07T13:54:46;6.70;99.90
22249;DHT22;67538;52.180;5.646;2023-02-07T13:57:36;6.70;99.90
22249;DHT22;67538;52.180;5.646;2023-02-07T14:00:22;6.70;99.90
22249;DHT22;67538;52.180;5.646;2023-02-07T14:02:52;6.70;99.90
22249;DHT22;67538;52.180;5.646;2023-02-07T14:05:23;6.70;99.90
22249;DHT22;67538;52.180;5.646;2023-02-07T14:07:59;6.70;99.90
22249;DHT22;67538;52.180;5.646;2023-02-07T14:10:44;6.60;99.90
22249;DHT22;67538;52.180;5.646;2023-02-07T14:13:27;6.70;99.90
22249;DHT22;67538;52.180;5.646;2023-02-07T14:15:58;6.70;99.90
22249;DHT22;67538;52.180;5.646;2023-02-07T14:18:53;6.60;99.90
22249;DHT22;67538;52.180;5.646;2023-02-07T14:21:36;6.60;99.90
22249;DHT22;67538;52.180;5.646;2023-02-07T14:24:20;6.50;99.90
22249;DHT22;67538;52.180;5.646;2023-02-07T14:30:19;6.60;99.90
22249;DHT22;67538;52.180;5.646;2023-02-07T14:33:11;6.70;99.90
22249;DHT22;67538;52.180;5.646;2023-02-07T14:35:45;6.70;99.90
22249;DHT22;67538;52.180;5.646;2023-02-07T14:38:31;6.70;99.90
22249;DHT22;67538;52.180;5.646;2023-02-07T14:41:03;6.70;99.90
22249;DHT22;67538;52.180;5.646;2023-02-07T14:43:41;6.60;99.90
22249;DHT22;67538;52.180;5.646;2023-02-07T14:46:12;6.60;99.90
22249;DHT22;67538;52.180;5.646;2023-02-07T14:48:50;6.60;99.90
22249;DHT22;67538;52.180;5.646;2023-02-07T14:51:21;6.50;99.90
22249;DHT22;67538;52.180;5.646;2023-02-07T14:53:57;6.60;99.90
22249;DHT22;67538;52.180;5.646;2023-02-07T14:56:48;6.60;99.90
22249;DHT22;67538;52.180;5.646;2023-02-07T14:59:25;6.50;99.90
22249;DHT22;67538;52.180;5.646;2023-02-07T15:01:55;6.40;99.90
22249;DHT22;67538;52.180;5.646;2023-02-07T15:04:22;6.30;99.90
22249;DHT22;67538;52.180;5.646;2023-02-07T15:06:49;6.30;99.90
22249;DHT22;67538;52.180;5.646;2023-02-07T15:09:20;6.30;99.90
22249;DHT22;67538;52.180;5.646;2023-02-07T15:11:49;6.30;99.90
22249;DHT22;67538;52.180;5.646;2023-02-07T15:14:21;6.30;99.90
22249;DHT22;67538;52.180;5.646;2023-02-07T15:16:48;6.30;99.90
22249;DHT22;67538;52.180;5.646;2023-02-07T15:19:22;6.30;99.90
22249;DHT22;67538;52.180;5.646;2023-02-07T15:21:52;6.30;99.90
22249;DHT22;67538;52.180;5.646;2023-02-07T15:24:25;6.30;99.90
22249;DHT22;67538;52.180;5.646;2023-02-07T15:26:55;6.30;99.90
22249;DHT22;67538;52.180;5.646;2023-02-07T15:29:25;6.30;99.90
22249;DHT22;67538;52.180;5.646;2023-02-07T15:31:52;6.20;99.90
22249;DHT22;67538;52.180;5.646;2023-02-07T15:34:23;6.20;99.90
22249;DHT22;67538;52.180;5.646;2023-02-07T15:36:57;6.10;99.90
22249;DHT22;67538;52.180;5.646;2023-02-07T15:39:26;6.10;99.90
22249;DHT22;67538;52.180;5.646;2023-02-07T15:41:55;6.00;99.90
22249;DHT22;67538;52.180;5.646;2023-02-07T15:44:24;6.00;99.90
22249;DHT22;67538;52.180;5.646;2023-02-07T15:46:54;5.90;99.90
22249;DHT22;67538;52.180;5.646;2023-02-07T15:49:28;5.90;99.90
22249;DHT22;67538;52.180;5.646;2023-02-07T15:51:59;5.80;99.90
22249;DHT22;67538;52.180;5.646;2023-02-07T15:54:27;5.80;99.90
22249;DHT22;67538;52.180;5.646;2023-02-07T15:56:57;5.60;99.90
22249;DHT22;67538;52.180;5.646;2023-02-07T15:59:27;5.60;99.90
22249;DHT22;67538;52.180;5.646;2023-02-07T16:01:56;5.50;99.90
22249;DHT22;67538;52.180;5.646;2023-02-07T16:04:27;5.40;99.90
22249;DHT22;67538;52.180;5.646;2023-02-07T16:06:58;5.30;99.90
22249;DHT22;67538;52.180;5.646;2023-02-07T16:09:38;5.30;99.90
22249;DHT22;67538;52.180;5.646;2023-02-07T16:12:40;5.20;99.90
22249;DHT22;67538;52.180;5.646;2023-02-07T16:15:22;5.10;99.90
22249;DHT22;67538;52.180;5.646;2023-02-07T16:17:49;5.00;99.90